sensor_id;sensor_type;location;lat;lon;timestamp;pressure;altitude;pressure_sealevel;temperature;humidity
41250;BME280;26984;59.928;30.306;2023-03-21T00:00:39;100195.94;;;4.81;100.00
41250;BME280;26984;59.928;30.306;2023-03-21T00:03:06;100200.53;;;4.72;100.00
41250;BME280;26984;59.928;30.306;2023-03-21T00:05:37;100195.13;;;4.66;100.00
41250;BME280;26984;59.928;30.306;2023-03-21T00:08:05;100198.06;;;4.71;100.00
41250;BME280;26984;59.928;30.306;2023-03-21T00:10:33;100196.88;;;4.73;100.00
41250;BME280;26984;59.928;30.306;2023-03-21T00:13:00;100187.56;;;4.69;100.00
41250;BME280;26984;59.928;30.306;2023-03-21T00:15:28;100192.53;;;4.72;100.00
41250;BME280;26984;59.928;30.306;2023-03-21T00:17:55;100188.59;;;4.68;100.00
41250;BME280;26984;59.928;30.306;2023-03-21T00:20:28;100180.22;;;4.71;100.00
41250;BME280;26984;59.928;30.306;2023-03-21T00:22:57;100191.59;;;4.80;100.00
41250;BME280;26984;59.928;30.306;2023-03-21T00:25:25;100180.72;;;4.82;100.00
41250;BME280;26984;59.928;30.306;2023-03-21T00:27:52;100169.34;;;4.73;100.00
41250;BME280;26984;59.928;30.306;2023-03-21T00:30:21;100178.69;;;4.84;100.00
41250;BME280;26984;59.928;30.306;2023-03-21T00:32:49;100168.44;;;4.87;100.00
41250;BME280;26984;59.928;30.306;2023-03-21T00:35:16;100166.63;;;4.88;100.00
41250;BME280;26984;59.928;30.306;2023-03-21T00:37:44;100162.06;;;5.03;100.00
41250;BME280;26984;59.928;30.306;2023-03-21T00:40:13;100174.38;;;5.04;100.00
41250;BME280;26984;59.928;30.306;2023-03-21T00:42:40;100169.78;;;4.98;100.00
41250;BME280;26984;59.928;30.306;2023-03-21T00:45:08;100167.69;;;5.15;100.00
41250;BME280;26984;59.928;30.306;2023-03-21T00:47:35;100167.97;;;5.20;100.00
41250;BME280;26984;59.928;30.306;2023-03-21T00:50:05;100161.16;;;5.17;100.00
41250;BME280;26984;59.928;30.306;2023-03-21T00:52:33;100166.09;;;5.20;100.00
41250;BME280;26984;59.928;30.306;2023-03-21T00:55:01;100168.34;;;5.17;100.00
41250;BME280;26984;59.928;30.306;2023-03-21T00:57:30;100163.63;;;5.19;100.00
41250;BME280;26984;59.928;30.306;2023-03-21T00:59:57;100154.41;;;5.21;100.00
41250;BME280;26984;59.928;30.306;2023-03-21T01:02:25;100163.13;;;5.37;100.00
41250;BME280;26984;59.928;30.306;2023-03-21T01:04:52;100160.88;;;5.34;100.00
41250;BME280;26984;59.928;30.306;2023-03-21T01:07:20;100155.34;;;5.35;100.00
41250;BME280;26984;59.928;30.306;2023-03-21T01:09:47;100157.94;;;5.28;100.00
41250;BME280;26984;59.928;30.306;2023-03-21T01:12:18;100159.22;;;5.33;100.00
41250;BME280;26984;59.928;30.306;2023-03-21T01:14:47;100151.53;;;5.51;100.00
41250;BME280;26984;59.928;30.306;2023-03-21T01:17:14;100156.44;;;5.47;100.00
41250;BME280;26984;59.928;30.306;2023-03-21T01:19:42;100164.44;;;5.47;100.00
41250;BME280;26984;59.928;30.306;2023-03-21T01:22:09;100158.06;;;5.42;100.00
41250;BME280;26984;59.928;30.306;2023-03-21T01:24:37;100164.16;;;5.36;100.00
41250;BME280;26984;59.928;30.306;2023-03-21T01:27:04;100167.03;;;5.34;100.00
41250;BME280;26984;59.928;30.306;2023-03-21T01:29:32;100169.72;;;5.34;100.00
41250;BME280;26984;59.928;30.306;2023-03-21T01:32:01;100173.59;;;5.32;100.00
41250;BME280;26984;59.928;30.306;2023-03-21T01:34:29;100172.25;;;5.42;100.00
41250;BME280;26984;59.928;30.306;2023-03-21T01:36:56;100175.31;;;5.18;100.00
41250;BME280;26984;59.928;30.306;2023-03-21T01:39:24;100182.13;;;5.20;100.00
41250;BME280;26984;59.928;30.306;2023-03-21T01:41:51;100174.34;;;5.25;100.00
41250;BME280;26984;59.928;30.306;2023-03-21T01:44:22;100178.69;;;5.26;100.00
41250;BME280;26984;59.928;30.306;2023-03-21T01:46:51;100187.34;;;5.07;100.00
41250;BME280;26984;59.928;30.306;2023-03-21T01:49:40;100185.19;;;4.96;100.00
41250;BME280;26984;59.928;30.306;2023-03-21T01:52:19;100197.47;;;4.54;100.00
41250;BME280;26984;59.928;30.306;2023-03-21T01:54:49;100206.06;;;4.35;100.00
41250;BME280;26984;59.928;30.306;2023-03-21T01:57:20;100200.34;;;4.23;100.00
41250;BME280;26984;59.928;30.306;2023-03-21T01:59:51;100203.88;;;4.08;100.00
41250;BME280;26984;59.928;30.306;2023-03-21T02:02:38;100211.84;;;3.79;100.00
41250;BME280;26984;59.928;30.306;2023-03-21T02:05:31;100208.59;;;3.54;100.00
41250;BME280;26984;59.928;30.306;2023-03-21T02:08:03;100206.53;;;3.41;100.00
41250;BME280;26984;59.928;30.306;2023-03-21T02:10:31;100206.47;;;3.34;100.00
41250;BME280;26984;59.928;30.306;2023-03-21T02:13:02;100207.19;;;3.28;100.00
41250;BME280;26984;59.928;30.306;2023-03-21T02:15:36;100213.41;;;3.21;100.00
41250;BME280;26984;59.928;30.306;2023-03-21T02:18:21;100209.84;;;3.05;100.00
41250;BME280;26984;59.928;30.306;2023-03-21T02:21:00;100215.50;;;3.02;100.00
41250;BME280;26984;59.928;30.306;2023-03-21T02:26:34;100222.03;;;3.00;100.00
41250;BME280;26984;59.928;30.306;2023-03-21T02:29:11;100215.34;;;3.04;100.00
41250;BME280;26984;59.928;30.306;2023-03-21T02:31:45;100215.03;;;2.99;100.00
41250;BME280;26984;59.928;30.306;2023-03-21T02:34:30;100222.72;;;2.94;100.00
41250;BME280;26984;59.928;30.306;2023-03-21T02:37:08;100213.56;;;2.96;100.00
41250;BME280;26984;59.928;30.306;2023-03-21T02:39:40;100217.00;;;2.82;100.00
41250;BME280;26984;59.928;30.306;2023-03-21T02:42:12;100211.69;;;2.82;100.00
41250;BME280;26984;59.928;30.306;2023-03-21T02:44:43;100220.88;;;2.71;100.00
41250;BME280;26984;59.928;30.306;2023-03-21T02:47:17;100217.34;;;2.79;100.00
41250;BME280;26984;59.928;30.306;2023-03-21T02:49:46;100223.72;;;2.70;100.00
41250;BME280;26984;59.928;30.306;2023-03-21T02:52:19;100228.41;;;2.59;100.00
41250;BME280;26984;59.928;30.306;2023-03-21T02:54:48;100224.31;;;2.49;100.00
41250;BME280;26984;59.928;30.306;2023-03-21T02:57:21;100217.28;;;2.56;100.00
41250;BME280;26984;59.928;30.306;2023-03-21T02:59:49;100224.28;;;2.57;100.00
41250;BME280;26984;59.928;30.306;2023-03-21T03:02:22;100220.63;;;2.58;100.00
41250;BME280;26984;59.928;30.306;2023-03-21T03:04:51;100230.28;;;2.51;100.00
41250;BME280;26984;59.928;30.306;2023-03-21T03:07:22;100221.66;;;2.49;100.00
41250;BME280;26984;59.928;30.306;2023-03-21T03:09:58;100221.31;;;2.52;100.00
41250;BME280;26984;59.928;30.306;2023-03-21T03:12:32;100212.84;;;2.48;100.00
41250;BME280;26984;59.928;30.306;2023-03-21T03:15:03;100214.34;;;2.51;100.00
41250;BME280;26984;59.928;30.306;2023-03-21T03:17:37;100216.00;;;2.52;100.00
41250;BME280;26984;59.928;30.306;2023-03-21T03:20:12;100223.50;;;2.48;100.00
41250;BME280;26984;59.928;30.306;2023-03-21T03:22:47;100221.84;;;2.47;100.00
41250;BME280;26984;59.928;30.306;2023-03-21T03:25:16;100217.69;;;2.45;100.00
41250;BME280;26984;59.928;30.306;2023-03-21T03:27:46;100218.00;;;2.50;100.00
41250;BME280;26984;59.928;30.306;2023-03-21T03:30:16;100224.16;;;2.50;100.00
41250;BME280;26984;59.928;30.306;2023-03-21T03:32:45;100230.47;;;2.49;100.00
41250;BME280;26984;59.928;30.306;2023-03-21T03:35:15;100239.47;;;2.40;100.00
41250;BME280;26984;59.928;30.306;2023-03-21T03:37:46;100233.97;;;2.42;100.00
41250;BME280;26984;59.928;30.306;2023-03-21T03:40:15;100225.53;;;2.38;100.00
41250;BME280;26984;59.928;30.306;2023-03-21T03:42:55;100231.84;;;2.37;100.00
41250;BME280;26984;59.928;30.306;2023-03-21T03:45:32;100235.56;;;2.28;100.00
41250;BME280;26984;59.928;30.306;2023-03-21T03:48:03;100239.22;;;2.19;100.00
41250;BME280;26984;59.928;30.306;2023-03-21T03:50:35;100237.06;;;2.22;100.00
41250;BME280;26984;59.928;30.306;2023-03-21T03:53:12;100239.91;;;2.21;100.00
41250;BME280;26984;59.928;30.306;2023-03-21T03:55:45;100248.72;;;2.21;100.00
41250;BME280;26984;59.928;30.306;2023-03-21T03:58:16;100245.88;;;2.23;100.00
41250;BME280;26984;59.928;30.306;2023-03-21T04:00:44;100256.63;;;2.29;100.00
41250;BME280;26984;59.928;30.306;2023-03-21T04:03:11;100253.69;;;2.24;100.00
41250;BME280;26984;59.928;30.306;2023-03-21T04:05:39;100255.97;;;2.27;100.00
41250;BME280;26984;59.928;30.306;2023-03-21T04:08:14;100261.97;;;2.29;100.00
41250;BME280;26984;59.928;30.306;2023-03-21T04:10:46;100268.78;;;2.24;100.00
41250;BME280;26984;59.928;30.306;2023-03-21T04:13:14;100257.81;;;2.27;100.00
41250;BME280;26984;59.928;30.306;2023-03-21T04:15:58;100273.13;;;2.25;100.00
41250;BME280;26984;59.928;30.306;2023-03-21T04:18:26;100270.13;;;2.20;100.00
41250;BME280;26984;59.928;30.306;2023-03-21T04:20:54;100279.41;;;2.24;100.00
41250;BME280;26984;59.928;30.306;2023-03-21T04:23:24;100287.88;;;2.27;100.00
41250;BME280;26984;59.928;30.306;2023-03-21T04:25:54;100286.03;;;2.36;100.00
41250;BME280;26984;59.928;30.306;2023-03-21T04:28:21;100297.53;;;2.28;100.00
41250;BME280;26984;59.928;30.306;2023-03-21T04:30:56;100292.34;;;2.27;100.00
41250;BME280;26984;59.928;30.306;2023-03-21T04:33:24;100288.84;;;2.34;100.00
41250;BME280;26984;59.928;30.306;2023-03-21T04:35:55;100289.47;;;2.45;100.00
41250;BME280;26984;59.928;30.306;2023-03-21T04:38:28;100296.09;;;2.49;100.00
41250;BME280;26984;59.928;30.306;2023-03-21T04:40:59;100300.94;;;2.53;100.00
41250;BME280;26984;59.928;30.306;2023-03-21T04:43:29;100298.28;;;2.53;100.00
41250;BME280;26984;59.928;30.306;2023-03-21T04:45:57;100298.09;;;2.55;100.00
41250;BME280;26984;59.928;30.306;2023-03-21T04:48:24;100294.06;;;2.59;100.00
41250;BME280;26984;59.928;30.306;2023-03-21T04:50:53;100302.91;;;2.51;100.00
41250;BME280;26984;59.928;30.306;2023-03-21T04:53:20;100308.91;;;2.45;100.00
41250;BME280;26984;59.928;30.306;2023-03-21T04:55:49;100304.22;;;2.55;100.00
41250;BME280;26984;59.928;30.306;2023-03-21T04:58:17;100308.22;;;2.51;100.00
41250;BME280;26984;59.928;30.306;2023-03-21T05:00:45;100310.25;;;2.49;100.00
41250;BME280;26984;59.928;30.306;2023-03-21T05:03:12;100313.25;;;2.46;100.00
41250;BME280;26984;59.928;30.306;2023-03-21T05:05:44;100316.72;;;2.47;100.00
41250;BME280;26984;59.928;30.306;2023-03-21T05:08:12;100325.00;;;2.52;100.00
41250;BME280;26984;59.928;30.306;2023-03-21T05:10:40;100330.00;;;2.55;100.00
41250;BME280;26984;59.928;30.306;2023-03-21T05:13:10;100302.75;;;2.53;100.00
41250;BME280;26984;59.928;30.306;2023-03-21T05:15:37;100319.22;;;2.56;100.00
41250;BME280;26984;59.928;30.306;2023-03-21T05:18:05;100319.84;;;2.58;100.00
41250;BME280;26984;59.928;30.306;2023-03-21T05:20:43;100326.47;;;2.71;100.00
41250;BME280;26984;59.928;30.306;2023-03-21T05:23:12;100330.72;;;2.80;100.00
41250;BME280;26984;59.928;30.306;2023-03-21T05:25:44;100326.91;;;2.82;100.00
41250;BME280;26984;59.928;30.306;2023-03-21T05:28:17;100324.78;;;2.78;100.00
41250;BME280;26984;59.928;30.306;2023-03-21T05:30:45;100325.59;;;2.78;100.00
41250;BME280;26984;59.928;30.306;2023-03-21T05:33:13;100335.19;;;2.87;100.00
41250;BME280;26984;59.928;30.306;2023-03-21T05:35:40;100330.88;;;2.86;100.00
41250;BME280;26984;59.928;30.306;2023-03-21T05:38:10;100339.72;;;2.79;100.00
41250;BME280;26984;59.928;30.306;2023-03-21T05:40:48;100342.34;;;2.87;100.00
41250;BME280;26984;59.928;30.306;2023-03-21T05:43:18;100343.00;;;2.89;100.00
41250;BME280;26984;59.928;30.306;2023-03-21T05:45:46;100347.25;;;2.98;100.00
41250;BME280;26984;59.928;30.306;2023-03-21T05:48:15;100351.56;;;3.07;100.00
41250;BME280;26984;59.928;30.306;2023-03-21T05:51:12;100362.34;;;3.06;100.00
41250;BME280;26984;59.928;30.306;2023-03-21T05:53:39;100361.72;;;3.04;100.00
41250;BME280;26984;59.928;30.306;2023-03-21T05:56:07;100372.31;;;3.12;100.00
41250;BME280;26984;59.928;30.306;2023-03-21T05:58:47;100366.84;;;3.05;100.00
41250;BME280;26984;59.928;30.306;2023-03-21T06:01:15;100364.38;;;3.04;100.00
41250;BME280;26984;59.928;30.306;2023-03-21T06:03:50;100368.91;;;2.95;100.00
41250;BME280;26984;59.928;30.306;2023-03-21T06:06:21;100366.03;;;3.05;100.00
41250;BME280;26984;59.928;30.306;2023-03-21T06:08:54;100360.41;;;3.00;100.00
41250;BME280;26984;59.928;30.306;2023-03-21T06:11:23;100364.78;;;2.93;100.00
41250;BME280;26984;59.928;30.306;2023-03-21T06:14:02;100366.47;;;2.85;100.00
41250;BME280;26984;59.928;30.306;2023-03-21T06:16:29;100360.44;;;2.92;100.00
41250;BME280;26984;59.928;30.306;2023-03-21T06:18:57;100366.91;;;2.97;100.00
41250;BME280;26984;59.928;30.306;2023-03-21T06:21:45;100373.38;;;3.03;100.00
41250;BME280;26984;59.928;30.306;2023-03-21T06:24:12;100372.91;;;2.99;100.00
41250;BME280;26984;59.928;30.306;2023-03-21T06:26:41;100373.00;;;3.06;100.00
41250;BME280;26984;59.928;30.306;2023-03-21T06:29:10;100391.53;;;2.91;100.00
41250;BME280;26984;59.928;30.306;2023-03-21T06:31:41;100389.59;;;2.85;100.00
41250;BME280;26984;59.928;30.306;2023-03-21T06:34:08;100400.22;;;2.85;100.00
41250;BME280;26984;59.928;30.306;2023-03-21T06:36:37;100395.69;;;2.94;100.00
41250;BME280;26984;59.928;30.306;2023-03-21T06:39:04;100398.31;;;3.02;100.00
41250;BME280;26984;59.928;30.306;2023-03-21T06:41:37;100401.16;;;3.00;100.00
41250;BME280;26984;59.928;30.306;2023-03-21T06:44:06;100416.78;;;3.03;100.00
41250;BME280;26984;59.928;30.306;2023-03-21T06:46:42;100406.63;;;2.99;100.00
41250;BME280;26984;59.928;30.306;2023-03-21T06:49:12;100412.66;;;2.93;100.00
41250;BME280;26984;59.928;30.306;2023-03-21T06:51:39;100418.78;;;3.01;100.00
41250;BME280;26984;59.928;30.306;2023-03-21T06:54:13;100424.06;;;3.09;100.00
41250;BME280;26984;59.928;30.306;2023-03-21T06:57:03;100417.41;;;3.14;100.00
41250;BME280;26984;59.928;30.306;2023-03-21T06:59:35;100414.19;;;3.26;100.00
41250;BME280;26984;59.928;30.306;2023-03-21T07:02:10;100417.81;;;3.33;100.00
41250;BME280;26984;59.928;30.306;2023-03-21T07:04:44;100417.41;;;3.45;100.00
41250;BME280;26984;59.928;30.306;2023-03-21T07:07:17;100420.69;;;3.55;100.00
41250;BME280;26984;59.928;30.306;2023-03-21T07:09:44;100420.16;;;3.59;100.00
41250;BME280;26984;59.928;30.306;2023-03-21T07:12:12;100426.97;;;3.62;100.00
41250;BME280;26984;59.928;30.306;2023-03-21T07:15:00;100424.78;;;3.66;100.00
41250;BME280;26984;59.928;30.306;2023-03-21T07:17:29;100426.03;;;3.78;100.00
41250;BME280;26984;59.928;30.306;2023-03-21T07:19:57;100422.84;;;3.82;100.00
41250;BME280;26984;59.928;30.306;2023-03-21T07:22:24;100418.53;;;3.81;100.00
41250;BME280;26984;59.928;30.306;2023-03-21T07:24:53;100415.13;;;3.88;100.00
41250;BME280;26984;59.928;30.306;2023-03-21T07:27:20;100430.75;;;3.91;100.00
41250;BME280;26984;59.928;30.306;2023-03-21T07:29:48;100438.00;;;3.82;100.00
41250;BME280;26984;59.928;30.306;2023-03-21T07:32:15;100432.75;;;3.66;100.00
41250;BME280;26984;59.928;30.306;2023-03-21T07:34:44;100433.84;;;3.56;100.00
41250;BME280;26984;59.928;30.306;2023-03-21T07:37:12;100440.00;;;3.57;100.00
41250;BME280;26984;59.928;30.306;2023-03-21T07:39:41;100446.41;;;3.40;100.00
41250;BME280;26984;59.928;30.306;2023-03-21T07:42:10;100439.50;;;3.22;100.00
41250;BME280;26984;59.928;30.306;2023-03-21T07:44:38;100444.66;;;3.24;100.00
41250;BME280;26984;59.928;30.306;2023-03-21T07:47:07;100445.63;;;3.31;100.00
41250;BME280;26984;59.928;30.306;2023-03-21T07:49:35;100439.09;;;3.42;100.00
41250;BME280;26984;59.928;30.306;2023-03-21T07:52:04;100452.13;;;3.59;100.00
41250;BME280;26984;59.928;30.306;2023-03-21T07:54:32;100444.56;;;3.71;100.00
41250;BME280;26984;59.928;30.306;2023-03-21T07:57:00;100446.72;;;3.99;100.00
41250;BME280;26984;59.928;30.306;2023-03-21T07:59:27;100448.28;;;4.08;100.00
41250;BME280;26984;59.928;30.306;2023-03-21T08:01:55;100440.81;;;4.26;100.00
41250;BME280;26984;59.928;30.306;2023-03-21T08:04:22;100450.75;;;4.32;100.00
41250;BME280;26984;59.928;30.306;2023-03-21T08:06:50;100453.09;;;4.50;100.00
41250;BME280;26984;59.928;30.306;2023-03-21T08:09:19;100452.75;;;4.68;100.00
41250;BME280;26984;59.928;30.306;2023-03-21T08:11:47;100448.81;;;4.79;100.00
41250;BME280;26984;59.928;30.306;2023-03-21T08:14:15;100458.13;;;4.83;100.00
41250;BME280;26984;59.928;30.306;2023-03-21T08:16:42;100458.22;;;4.90;100.00
41250;BME280;26984;59.928;30.306;2023-03-21T08:19:10;100460.06;;;4.89;100.00
41250;BME280;26984;59.928;30.306;2023-03-21T08:21:37;100468.72;;;4.91;100.00
41250;BME280;26984;59.928;30.306;2023-03-21T08:24:05;100469.72;;;4.90;100.00
41250;BME280;26984;59.928;30.306;2023-03-21T08:26:34;100472.03;;;4.93;100.00
41250;BME280;26984;59.928;30.306;2023-03-21T08:29:03;100468.53;;;4.93;100.00
41250;BME280;26984;59.928;30.306;2023-03-21T08:31:31;100479.31;;;4.85;100.00
41250;BME280;26984;59.928;30.306;2023-03-21T08:33:58;100483.59;;;4.71;100.00
41250;BME280;26984;59.928;30.306;2023-03-21T08:36:27;100477.75;;;4.38;100.00
41250;BME280;26984;59.928;30.306;2023-03-21T08:38:55;100487.22;;;4.17;100.00
41250;BME280;26984;59.928;30.306;2023-03-21T08:41:30;100482.34;;;3.98;100.00
41250;BME280;26984;59.928;30.306;2023-03-21T08:43:59;100503.16;;;4.02;100.00
41250;BME280;26984;59.928;30.306;2023-03-21T08:46:26;100497.16;;;4.00;100.00
41250;BME280;26984;59.928;30.306;2023-03-21T08:48:54;100498.69;;;3.95;100.00
41250;BME280;26984;59.928;30.306;2023-03-21T08:51:21;100507.16;;;3.98;100.00
41250;BME280;26984;59.928;30.306;2023-03-21T08:53:49;100511.03;;;3.96;100.00
41250;BME280;26984;59.928;30.306;2023-03-21T08:56:17;100507.69;;;3.94;100.00
41250;BME280;26984;59.928;30.306;2023-03-21T08:58:44;100513.22;;;3.92;100.00
41250;BME280;26984;59.928;30.306;2023-03-21T09:01:13;100507.16;;;3.98;100.00
41250;BME280;26984;59.928;30.306;2023-03-21T09:03:41;100513.06;;;4.17;100.00
41250;BME280;26984;59.928;30.306;2023-03-21T09:06:08;100514.25;;;4.14;100.00
41250;BME280;26984;59.928;30.306;2023-03-21T09:08:37;100502.56;;;4.38;100.00
41250;BME280;26984;59.928;30.306;2023-03-21T09:11:04;100517.88;;;4.21;100.00
41250;BME280;26984;59.928;30.306;2023-03-21T09:13:32;100519.16;;;4.02;100.00
41250;BME280;26984;59.928;30.306;2023-03-21T09:15:59;100516.41;;;3.88;100.00
41250;BME280;26984;59.928;30.306;2023-03-21T09:18:28;100515.75;;;3.86;100.00
41250;BME280;26984;59.928;30.306;2023-03-21T09:21:10;100527.38;;;3.93;100.00
41250;BME280;26984;59.928;30.306;2023-03-21T09:23:39;100523.53;;;3.95;100.00
41250;BME280;26984;59.928;30.306;2023-03-21T09:26:07;100535.44;;;3.76;100.00
41250;BME280;26984;59.928;30.306;2023-03-21T09:28:35;100535.00;;;3.65;100.00
41250;BME280;26984;59.928;30.306;2023-03-21T09:31:04;100527.91;;;3.57;100.00
41250;BME280;26984;59.928;30.306;2023-03-21T09:33:34;100536.50;;;3.67;100.00
41250;BME280;26984;59.928;30.306;2023-03-21T09:36:03;100545.19;;;3.61;100.00
41250;BME280;26984;59.928;30.306;2023-03-21T09:38:31;100550.31;;;3.71;100.00
41250;BME280;26984;59.928;30.306;2023-03-21T09:41:04;100554.03;;;3.93;100.00
41250;BME280;26984;59.928;30.306;2023-03-21T09:43:40;100549.38;;;4.41;100.00
41250;BME280;26984;59.928;30.306;2023-03-21T09:46:16;100544.47;;;4.90;100.00
41250;BME280;26984;59.928;30.306;2023-03-21T09:48:49;100558.97;;;5.25;100.00
41250;BME280;26984;59.928;30.306;2023-03-21T09:51:22;100551.88;;;5.33;100.00
41250;BME280;26984;59.928;30.306;2023-03-21T09:54:12;100553.72;;;5.32;100.00
41250;BME280;26984;59.928;30.306;2023-03-21T09:56:43;100548.59;;;4.78;100.00
41250;BME280;26984;59.928;30.306;2023-03-21T09:59:13;100545.00;;;4.48;99.36
41250;BME280;26984;59.928;30.306;2023-03-21T10:01:45;100553.28;;;4.07;100.00
41250;BME280;26984;59.928;30.306;2023-03-21T10:04:15;100570.84;;;3.93;100.00
41250;BME280;26984;59.928;30.306;2023-03-21T10:06:46;100551.84;;;3.96;100.00
41250;BME280;26984;59.928;30.306;2023-03-21T10:09:19;100558.78;;;4.05;99.99
41250;BME280;26984;59.928;30.306;2023-03-21T10:11:49;100554.78;;;4.32;97.25
41250;BME280;26984;59.928;30.306;2023-03-21T10:14:18;100558.91;;;4.58;98.60
41250;BME280;26984;59.928;30.306;2023-03-21T10:16:48;100564.41;;;5.17;92.98
41250;BME280;26984;59.928;30.306;2023-03-21T10:19:18;100559.81;;;5.41;87.41
41250;BME280;26984;59.928;30.306;2023-03-21T10:21:46;100563.66;;;5.53;88.75
41250;BME280;26984;59.928;30.306;2023-03-21T10:24:15;100559.81;;;5.56;87.66
41250;BME280;26984;59.928;30.306;2023-03-21T10:26:43;100565.31;;;5.54;88.83
41250;BME280;26984;59.928;30.306;2023-03-21T10:29:11;100556.09;;;5.71;90.52
41250;BME280;26984;59.928;30.306;2023-03-21T10:31:41;100560.22;;;6.04;88.39
41250;BME280;26984;59.928;30.306;2023-03-21T10:34:12;100568.97;;;5.83;83.01
41250;BME280;26984;59.928;30.306;2023-03-21T10:36:43;100566.53;;;5.51;79.97
41250;BME280;26984;59.928;30.306;2023-03-21T10:39:14;100559.63;;;5.27;82.88
41250;BME280;26984;59.928;30.306;2023-03-21T10:41:43;100561.56;;;5.34;83.37
41250;BME280;26984;59.928;30.306;2023-03-21T10:44:12;100558.25;;;5.32;81.78
41250;BME280;26984;59.928;30.306;2023-03-21T10:46:48;100564.88;;;5.36;82.44
41250;BME280;26984;59.928;30.306;2023-03-21T10:49:16;100562.22;;;4.98;80.48
41250;BME280;26984;59.928;30.306;2023-03-21T10:51:48;100567.81;;;4.73;84.90
41250;BME280;26984;59.928;30.306;2023-03-21T10:54:17;100569.59;;;4.81;88.56
41250;BME280;26984;59.928;30.306;2023-03-21T10:56:49;100572.56;;;4.63;93.54
41250;BME280;26984;59.928;30.306;2023-03-21T10:59:19;100579.69;;;4.71;98.44
41250;BME280;26984;59.928;30.306;2023-03-21T11:01:49;100578.66;;;4.72;100.00
41250;BME280;26984;59.928;30.306;2023-03-21T11:04:18;100583.41;;;4.62;100.00
41250;BME280;26984;59.928;30.306;2023-03-21T11:06:51;100577.19;;;4.46;100.00
41250;BME280;26984;59.928;30.306;2023-03-21T11:09:20;100568.41;;;4.61;100.00
41250;BME280;26984;59.928;30.306;2023-03-21T11:11:50;100580.75;;;4.39;100.00
41250;BME280;26984;59.928;30.306;2023-03-21T11:14:25;100592.72;;;4.20;100.00
41250;BME280;26984;59.928;30.306;2023-03-21T11:16:53;100600.19;;;4.16;100.00
41250;BME280;26984;59.928;30.306;2023-03-21T11:19:25;100599.84;;;4.19;100.00
41250;BME280;26984;59.928;30.306;2023-03-21T11:21:54;100599.22;;;4.17;100.00
41250;BME280;26984;59.928;30.306;2023-03-21T11:24:22;100601.63;;;4.04;100.00
41250;BME280;26984;59.928;30.306;2023-03-21T11:26:50;100609.91;;;4.09;100.00
41250;BME280;26984;59.928;30.306;2023-03-21T11:29:23;100605.78;;;3.98;100.00
41250;BME280;26984;59.928;30.306;2023-03-21T11:31:52;100596.34;;;3.88;100.00
41250;BME280;26984;59.928;30.306;2023-03-21T11:34:25;100611.78;;;3.61;100.00
41250;BME280;26984;59.928;30.306;2023-03-21T11:36:58;100597.31;;;3.64;100.00
41250;BME280;26984;59.928;30.306;2023-03-21T11:39:33;100596.66;;;3.53;100.00
41250;BME280;26984;59.928;30.306;2023-03-21T11:42:02;100596.97;;;3.58;100.00
41250;BME280;26984;59.928;30.306;2023-03-21T11:44:30;100603.50;;;3.56;100.00
41250;BME280;26984;59.928;30.306;2023-03-21T11:46:58;100602.34;;;3.42;100.00
41250;BME280;26984;59.928;30.306;2023-03-21T11:49:26;100601.88;;;3.39;100.00
41250;BME280;26984;59.928;30.306;2023-03-21T11:52:02;100603.16;;;3.51;100.00
41250;BME280;26984;59.928;30.306;2023-03-21T11:54:34;100592.19;;;3.46;100.00
41250;BME280;26984;59.928;30.306;2023-03-21T11:57:05;100594.19;;;3.44;100.00
41250;BME280;26984;59.928;30.306;2023-03-21T11:59:37;100598.88;;;3.33;100.00
41250;BME280;26984;59.928;30.306;2023-03-21T12:02:17;100599.53;;;3.35;100.00
41250;BME280;26984;59.928;30.306;2023-03-21T12:04:51;100598.72;;;3.35;100.00
41250;BME280;26984;59.928;30.306;2023-03-21T12:07:34;100599.84;;;3.41;100.00
41250;BME280;26984;59.928;30.306;2023-03-21T12:10:24;100595.00;;;3.44;100.00
41250;BME280;26984;59.928;30.306;2023-03-21T12:12:53;100599.00;;;3.48;100.00
41250;BME280;26984;59.928;30.306;2023-03-21T12:15:23;100588.22;;;3.42;100.00
41250;BME280;26984;59.928;30.306;2023-03-21T12:17:55;100592.41;;;3.28;100.00
41250;BME280;26984;59.928;30.306;2023-03-21T12:20:33;100607.22;;;3.22;100.00
41250;BME280;26984;59.928;30.306;2023-03-21T12:25:50;100595.09;;;3.03;100.00
41250;BME280;26984;59.928;30.306;2023-03-21T12:28:24;100593.75;;;3.07;100.00
41250;BME280;26984;59.928;30.306;2023-03-21T12:30:56;100604.75;;;3.04;100.00
41250;BME280;26984;59.928;30.306;2023-03-21T12:33:31;100602.09;;;3.04;100.00
41250;BME280;26984;59.928;30.306;2023-03-21T12:36:06;100601.91;;;3.06;100.00
41250;BME280;26984;59.928;30.306;2023-03-21T12:38:37;100601.41;;;3.10;100.00
41250;BME280;26984;59.928;30.306;2023-03-21T12:41:14;100601.25;;;3.04;100.00
41250;BME280;26984;59.928;30.306;2023-03-21T12:43:43;100606.72;;;3.02;100.00
41250;BME280;26984;59.928;30.306;2023-03-21T12:46:14;100608.72;;;3.08;100.00
41250;BME280;26984;59.928;30.306;2023-03-21T12:48:44;100619.56;;;3.07;100.00
41250;BME280;26984;59.928;30.306;2023-03-21T12:51:14;100607.59;;;3.03;100.00
41250;BME280;26984;59.928;30.306;2023-03-21T12:53:46;100604.56;;;3.06;100.00
41250;BME280;26984;59.928;30.306;2023-03-21T12:56:17;100615.56;;;3.03;100.00
41250;BME280;26984;59.928;30.306;2023-03-21T12:58:48;100616.06;;;2.98;100.00
41250;BME280;26984;59.928;30.306;2023-03-21T13:01:18;100612.25;;;2.93;100.00
41250;BME280;26984;59.928;30.306;2023-03-21T13:03:49;100607.06;;;2.91;100.00